Time;durP1;ratioP1;P1;durP2;ratioP2;P2;SDS_P1;SDS_P2;PMS_P1;PMS_P2;Temp;Humidity;BMP_temperature;BMP_pressure;BME280_temperature;BME280_humidity;BME280_pressure;Samples;Min_cycle;Max_cycle;Signal;HPM_P1;HPM_P2
2021/08/19 00:01:23;;;;;;;13.60;7.40;;;18.40;99.90;;;;;;5010662;28;25068;-76
2021/08/19 00:03:48;;;;;;;13.88;7.22;;;18.30;99.90;;;;;;5015655;28;25089;-77
2021/08/19 00:06:14;;;;;;;18.25;9.02;;;18.40;99.90;;;;;;5011347;28;25158;-75
2021/08/19 00:08:41;;;;;;;16.42;8.27;;;18.40;99.90;;;;;;5011090;28;25106;-76
2021/08/19 00:11:09;;;;;;;20.27;9.57;;;18.30;99.90;;;;;;5012730;28;25093;-75
2021/08/19 00:13:34;;;;;;;24.27;9.48;;;18.30;99.90;;;;;;5013323;28;25100;-75
2021/08/19 00:16:00;;;;;;;18.63;10.45;;;18.30;99.90;;;;;;4993037;28;25082;-75
2021/08/19 00:18:26;;;;;;;17.23;9.88;;;18.30;99.90;;;;;;5008201;28;25049;-75
2021/08/19 00:20:52;;;;;;;19.55;9.95;;;18.40;99.90;;;;;;5008451;28;25120;-76
2021/08/19 00:23:17;;;;;;;18.45;10.85;;;18.30;99.90;;;;;;4991774;28;25081;-76
2021/08/19 00:25:43;;;;;;;20.00;9.90;;;18.30;99.90;;;;;;5009669;28;25126;-76
2021/08/19 00:28:09;;;;;;;19.25;10.20;;;18.30;99.90;;;;;;5008262;28;25126;-73
2021/08/19 00:30:34;;;;;;;24.92;10.98;;;18.20;99.90;;;;;;5007241;28;25077;-76
2021/08/19 00:33:00;;;;;;;22.85;11.32;;;18.20;99.90;;;;;;5012716;28;25156;-75
2021/08/19 00:35:25;;;;;;;18.20;10.05;;;18.10;99.90;;;;;;5010141;28;25138;-75
2021/08/19 00:37:51;;;;;;;17.70;10.43;;;18.10;99.90;;;;;;5012627;28;25141;-77
2021/08/19 00:40:17;;;;;;;19.35;11.68;;;18.00;99.90;;;;;;5011421;28;25135;-76
2021/08/19 00:42:42;;;;;;;19.45;11.52;;;18.00;99.90;;;;;;5009599;28;25069;-75
2021/08/19 00:45:08;;;;;;;27.25;11.73;;;18.00;99.90;;;;;;5009492;28;25082;-76
2021/08/19 00:47:38;;;;;;;19.05;12.13;;;18.00;99.90;;;;;;5010224;28;25050;-76
2021/08/19 00:50:05;;;;;;;21.50;13.20;;;17.90;99.90;;;;;;5011693;28;25071;-77
2021/08/19 00:52:31;;;;;;;27.90;14.13;;;18.00;99.90;;;;;;5013795;28;25077;-77
2021/08/19 00:54:58;;;;;;;30.75;15.63;;;18.00;99.90;;;;;;5012085;28;25070;-78
2021/08/19 00:57:23;;;;;;;25.75;13.88;;;17.90;99.90;;;;;;5014498;28;25059;-79
2021/08/19 00:59:52;;;;;;;32.03;15.23;;;18.00;99.90;;;;;;5021287;28;25094;-78
2021/08/19 01:02:19;;;;;;;32.30;19.50;;;18.00;99.90;;;;;;5015163;28;25161;-78
2021/08/19 01:04:45;;;;;;;39.47;20.85;;;17.90;99.90;;;;;;5014443;28;25061;-77
2021/08/19 01:07:11;;;;;;;32.85;19.77;;;17.80;99.90;;;;;;5017510;28;25164;-77
2021/08/19 01:09:38;;;;;;;41.35;21.65;;;17.80;99.90;;;;;;5016553;28;25118;-77
2021/08/19 01:12:09;;;;;;;44.58;24.15;;;17.80;99.90;;;;;;5020663;28;25107;-78
2021/08/19 01:14:37;;;;;;;40.13;22.77;;;17.80;99.90;;;;;;5017131;28;25152;-77
2021/08/19 01:17:13;;;;;;;38.83;22.40;;;17.80;99.90;;;;;;5015337;28;25080;-78
2021/08/19 01:19:40;;;;;;;36.70;22.10;;;17.80;99.90;;;;;;5023303;28;25101;-78
2021/08/19 01:22:06;;;;;;;37.20;24.40;;;17.80;99.90;;;;;;5019470;28;25106;-78
2021/08/19 01:24:32;;;;;;;41.72;23.52;;;17.80;99.90;;;;;;5017067;28;25090;-77
2021/08/19 01:26:58;;;;;;;35.70;22.85;;;17.90;99.90;;;;;;5016937;28;25161;-77
2021/08/19 01:29:24;;;;;;;37.63;22.95;;;17.90;99.90;;;;;;5015910;28;25109;-79
2021/08/19 01:32:01;;;;;;;40.20;23.58;;;17.90;99.90;;;;;;5016890;28;25068;-77
2021/08/19 01:34:28;;;;;;;44.60;24.88;;;17.90;99.90;;;;;;5015904;28;25089;-78
2021/08/19 01:36:53;;;;;;;36.58;23.40;;;17.80;99.90;;;;;;5016117;28;25120;-77
2021/08/19 01:39:19;;;;;;;47.22;23.83;;;17.80;99.90;;;;;;5014025;28;25065;-76
2021/08/19 01:41:45;;;;;;;37.40;24.02;;;17.90;99.90;;;;;;5009661;28;25076;-77
2021/08/19 01:44:10;;;;;;;42.17;24.92;;;17.90;99.90;;;;;;5013884;28;25053;-78
2021/08/19 01:46:36;;;;;;;47.75;25.52;;;17.90;99.90;;;;;;5012660;28;25064;-76
2021/08/19 01:49:02;;;;;;;49.42;25.38;;;17.80;99.90;;;;;;5011236;28;25100;-76
2021/08/19 01:51:29;;;;;;;38.47;25.75;;;17.80;99.90;;;;;;4991001;28;25053;-77
2021/08/19 01:53:54;;;;;;;44.00;25.77;;;17.80;99.90;;;;;;5012388;28;25088;-77
2021/08/19 01:56:24;;;;;;;57.63;28.10;;;17.80;99.90;;;;;;5015126;28;25108;-76
2021/08/19 01:58:50;;;;;;;43.55;24.25;;;17.80;99.90;;;;;;5018546;28;25076;-76
2021/08/19 02:01:21;;;;;;;43.78;24.88;;;17.80;99.90;;;;;;4997182;28;25069;-77
2021/08/19 02:03:48;;;;;;;48.92;25.83;;;17.80;99.90;;;;;;5002680;28;25074;-79
2021/08/19 02:06:14;;;;;;;46.45;25.50;;;17.70;99.90;;;;;;5018119;28;25174;-77
2021/08/19 02:08:40;;;;;;;55.53;26.75;;;17.70;99.90;;;;;;5012369;28;25112;-77
2021/08/19 02:11:06;;;;;;;52.15;27.95;;;17.70;99.90;;;;;;5010312;28;25061;-77
2021/08/19 02:13:31;;;;;;;42.03;23.77;;;17.60;99.90;;;;;;5012278;28;25086;-78
2021/08/19 02:15:58;;;;;;;48.83;25.48;;;17.70;99.90;;;;;;5013069;28;25144;-78
2021/08/19 02:18:23;;;;;;;55.33;26.75;;;17.70;99.90;;;;;;5013808;28;25060;-77
2021/08/19 02:20:49;;;;;;;47.65;24.92;;;17.60;99.90;;;;;;5016494;28;25061;-78
2021/08/19 02:23:14;;;;;;;54.03;26.38;;;17.50;99.90;;;;;;5012949;28;25083;-76
2021/08/19 02:25:40;;;;;;;61.83;28.92;;;17.60;99.90;;;;;;5016878;28;25050;-78
2021/08/19 02:28:05;;;;;;;41.58;25.20;;;17.60;99.90;;;;;;5013465;28;25064;-78
2021/08/19 02:30:31;;;;;;;53.95;25.20;;;17.60;99.90;;;;;;5015267;28;25054;-77
2021/08/19 02:32:57;;;;;;;56.75;24.95;;;17.60;99.90;;;;;;5017040;28;25085;-78
2021/08/19 02:35:27;;;;;;;47.15;24.75;;;17.60;99.90;;;;;;4992552;28;25070;-78
2021/08/19 02:37:54;;;;;;;44.10;23.65;;;17.70;99.90;;;;;;4997828;28;25081;-78
2021/08/19 02:40:22;;;;;;;51.38;24.20;;;17.70;99.90;;;;;;5012776;28;25047;-77
2021/08/19 02:42:48;;;;;;;36.80;21.67;;;17.70;99.90;;;;;;5028542;28;25059;-77
2021/08/19 02:45:16;;;;;;;50.83;22.33;;;17.70;99.90;;;;;;5029410;28;25086;-76
2021/08/19 02:47:41;;;;;;;40.92;20.67;;;17.80;99.90;;;;;;5036175;28;25084;-77
2021/08/19 02:50:08;;;;;;;40.45;20.27;;;17.90;99.90;;;;;;5025811;28;25081;-77
2021/08/19 02:52:34;;;;;;;38.50;20.13;;;17.90;99.90;;;;;;5021085;28;25101;-77
2021/08/19 02:55:00;;;;;;;37.28;19.42;;;17.90;99.90;;;;;;5023375;28;25081;-77
2021/08/19 02:57:26;;;;;;;29.45;17.13;;;17.90;99.90;;;;;;5017064;28;25098;-76
2021/08/19 02:59:52;;;;;;;40.78;17.30;;;17.90;99.90;;;;;;5018875;28;25095;-76
2021/08/19 03:02:17;;;;;;;34.38;16.98;;;18.00;99.90;;;;;;5017970;28;25080;-77
2021/08/19 03:04:43;;;;;;;45.92;17.58;;;18.00;99.90;;;;;;5018038;28;25092;-76
2021/08/19 03:07:09;;;;;;;33.00;17.33;;;18.00;99.90;;;;;;5015396;28;25065;-77
2021/08/19 03:09:35;;;;;;;37.80;16.27;;;18.00;99.90;;;;;;5011778;28;25083;-77
2021/08/19 03:12:02;;;;;;;32.03;14.18;;;18.00;99.90;;;;;;4990939;28;25066;-77
2021/08/19 03:14:28;;;;;;;35.17;16.33;;;18.00;99.90;;;;;;5011613;28;25073;-76
2021/08/19 03:16:54;;;;;;;31.83;15.88;;;18.10;99.90;;;;;;5014456;28;25079;-76
2021/08/19 03:19:20;;;;;;;34.47;14.35;;;18.10;99.90;;;;;;5014858;28;25177;-77
2021/08/19 03:21:48;;;;;;;44.90;15.23;;;18.10;99.90;;;;;;5023771;28;25081;-78
2021/08/19 03:24:17;;;;;;;36.28;14.60;;;18.10;99.90;;;;;;5034555;28;25073;-75
2021/08/19 03:26:47;;;;;;;34.35;13.68;;;18.00;99.90;;;;;;5032917;28;25087;-75
2021/08/19 03:29:12;;;;;;;36.53;14.38;;;17.90;99.90;;;;;;5033837;28;25085;-77
2021/08/19 03:31:38;;;;;;;34.60;14.68;;;17.80;99.90;;;;;;5032335;28;25062;-76
2021/08/19 03:34:03;;;;;;;28.88;12.73;;;17.80;99.90;;;;;;5032541;28;25119;-78
2021/08/19 03:36:29;;;;;;;27.42;13.57;;;17.80;99.90;;;;;;5033187;28;25055;-75
2021/08/19 03:38:56;;;;;;;28.88;13.55;;;17.80;99.90;;;;;;5030315;28;25085;-74
2021/08/19 03:41:22;;;;;;;29.55;13.80;;;17.70;99.90;;;;;;5030020;28;25058;-76
2021/08/19 03:43:48;;;;;;;27.42;12.98;;;17.70;99.90;;;;;;5030397;28;25089;-76
2021/08/19 03:46:14;;;;;;;27.33;12.45;;;17.80;99.90;;;;;;5022091;28;25077;-77
2021/08/19 03:48:41;;;;;;;25.30;13.10;;;17.70;99.90;;;;;;5016817;28;25179;-76
2021/08/19 03:51:07;;;;;;;27.00;12.95;;;17.80;99.90;;;;;;5012727;28;25104;-76
2021/08/19 03:53:35;;;;;;;28.67;12.75;;;17.80;99.90;;;;;;5012861;28;25082;-76
2021/08/19 03:56:00;;;;;;;24.02;12.23;;;17.80;99.90;;;;;;5011448;28;25061;-76
2021/08/19 03:58:26;;;;;;;30.08;11.63;;;17.70;99.90;;;;;;5012010;28;25048;-76
2021/08/19 04:00:51;;;;;;;26.40;10.52;;;17.80;99.90;;;;;;5007902;28;25101;-75
2021/08/19 04:03:17;;;;;;;22.83;10.40;;;17.70;99.90;;;;;;5011301;28;25065;-79
2021/08/19 04:05:43;;;;;;;19.60;10.38;;;17.80;99.90;;;;;;5011894;28;25073;-74
2021/08/19 04:08:09;;;;;;;20.65;9.77;;;17.80;99.90;;;;;;5010740;28;25145;-76
2021/08/19 04:10:34;;;;;;;24.63;11.15;;;17.80;99.90;;;;;;5010782;28;25061;-75
2021/08/19 04:13:00;;;;;;;21.40;10.70;;;17.70;99.90;;;;;;5010506;28;25069;-74
2021/08/19 04:15:26;;;;;;;21.25;11.73;;;17.70;99.90;;;;;;5010931;28;25065;-76
2021/08/19 04:17:52;;;;;;;20.17;10.40;;;17.80;99.90;;;;;;5010055;28;25066;-76
2021/08/19 04:20:19;;;;;;;17.63;9.38;;;17.70;99.90;;;;;;5008053;28;25049;-76
2021/08/19 04:22:44;;;;;;;19.90;9.57;;;17.70;99.90;;;;;;5008466;28;25082;-76
2021/08/19 04:25:11;;;;;;;13.55;9.85;;;17.80;99.90;;;;;;5009040;28;25093;-77
2021/08/19 04:27:37;;;;;;;22.70;10.15;;;17.80;99.90;;;;;;5014835;28;25067;-77
2021/08/19 04:30:04;;;;;;;20.13;10.32;;;17.70;99.90;;;;;;5011303;28;25080;-77
2021/08/19 04:32:29;;;;;;;17.35;9.30;;;17.70;99.90;;;;;;5009959;28;25071;-77
2021/08/19 04:34:55;;;;;;;14.32;9.38;;;17.60;99.90;;;;;;5013741;28;25063;-75
2021/08/19 04:37:22;;;;;;;17.75;9.15;;;17.70;99.90;;;;;;5013656;28;25083;-77
2021/08/19 04:39:48;;;;;;;24.08;9.52;;;17.70;99.90;;;;;;5013053;28;25073;-78
2021/08/19 04:42:13;;;;;;;14.75;8.43;;;17.70;99.90;;;;;;5014004;28;25136;-74
2021/08/19 04:44:39;;;;;;;15.10;9.13;;;17.80;99.90;;;;;;5015613;28;25058;-76
2021/08/19 04:47:04;;;;;;;16.13;8.80;;;17.90;99.90;;;;;;5014217;28;25074;-76
2021/08/19 04:49:30;;;;;;;19.85;9.63;;;17.80;99.90;;;;;;5013117;28;25104;-75
2021/08/19 04:51:56;;;;;;;14.40;9.27;;;17.80;99.90;;;;;;5010496;28;25060;-75
2021/08/19 04:54:22;;;;;;;20.27;8.85;;;17.90;99.90;;;;;;5004998;28;25137;-76
2021/08/19 04:56:47;;;;;;;16.08;8.38;;;17.90;99.90;;;;;;5013214;28;25074;-77
2021/08/19 04:59:13;;;;;;;16.23;9.30;;;18.00;99.90;;;;;;5013365;28;25090;-76
2021/08/19 05:01:39;;;;;;;25.25;8.68;;;18.00;99.90;;;;;;5012741;28;25060;-75
2021/08/19 05:04:05;;;;;;;20.27;10.20;;;18.00;99.90;;;;;;5010417;28;25065;-76
2021/08/19 05:06:33;;;;;;;22.13;10.93;;;18.00;99.90;;;;;;5011353;28;25078;-74
2021/08/19 05:09:00;;;;;;;26.10;13.50;;;17.90;99.90;;;;;;5012186;28;25060;-77
2021/08/19 05:11:26;;;;;;;22.63;13.32;;;17.90;99.90;;;;;;5010846;28;25063;-76
2021/08/19 05:13:57;;;;;;;29.90;14.75;;;17.90;99.90;;;;;;5011387;28;25056;-76
2021/08/19 05:16:23;;;;;;;25.73;15.35;;;17.90;99.90;;;;;;5013445;28;25071;-76
2021/08/19 05:18:49;;;;;;;38.13;17.10;;;17.90;99.90;;;;;;5012376;28;25067;-77
2021/08/19 05:21:14;;;;;;;31.83;15.85;;;17.80;99.90;;;;;;5011036;28;25050;-76
2021/08/19 05:23:40;;;;;;;42.35;17.27;;;17.90;99.90;;;;;;5010101;28;25118;-76
2021/08/19 05:26:06;;;;;;;37.60;17.40;;;17.90;99.90;;;;;;5012129;28;25143;-76
2021/08/19 05:28:33;;;;;;;39.53;17.90;;;17.80;99.90;;;;;;5010697;28;25072;-75
2021/08/19 05:30:58;;;;;;;39.17;17.80;;;17.80;99.90;;;;;;5013001;28;25077;-75
2021/08/19 05:33:24;;;;;;;41.58;19.15;;;17.80;99.90;;;;;;4994331;28;25156;-77
2021/08/19 05:35:50;;;;;;;41.25;19.05;;;17.80;99.90;;;;;;5012522;28;25063;-77
2021/08/19 05:38:15;;;;;;;33.53;19.48;;;17.80;99.90;;;;;;4995296;28;25067;-76
2021/08/19 05:40:41;;;;;;;39.67;18.40;;;17.70;99.90;;;;;;5012027;28;25073;-77
2021/08/19 05:43:06;;;;;;;35.30;17.33;;;17.70;99.90;;;;;;5013313;28;25076;-76
2021/08/19 05:45:35;;;;;;;31.95;17.02;;;17.60;99.90;;;;;;5015294;28;25063;-76
2021/08/19 05:48:03;;;;;;;34.35;16.50;;;17.70;99.90;;;;;;5015760;28;25068;-77
2021/08/19 05:50:30;;;;;;;29.85;16.70;;;17.70;99.90;;;;;;5014379;28;25099;-78
2021/08/19 05:52:55;;;;;;;30.80;15.75;;;17.70;99.90;;;;;;5013863;28;25063;-77
2021/08/19 05:55:21;;;;;;;35.05;16.58;;;17.70;99.90;;;;;;5013107;28;25075;-76
2021/08/19 05:57:47;;;;;;;37.33;16.35;;;17.70;99.90;;;;;;5011522;28;25088;-74
2021/08/19 06:00:14;;;;;;;31.17;16.42;;;17.70;99.90;;;;;;5011045;28;25074;-75
2021/08/19 06:02:39;;;;;;;29.20;15.73;;;17.70;99.90;;;;;;5009776;28;25149;-77
2021/08/19 06:05:06;;;;;;;26.80;15.38;;;17.70;99.90;;;;;;5010907;28;25096;-76
2021/08/19 06:07:31;;;;;;;33.08;14.05;;;17.60;99.90;;;;;;5012517;28;25082;-75
2021/08/19 06:10:01;;;;;;;26.05;14.95;;;17.70;99.90;;;;;;5023725;28;25081;-74
2021/08/19 06:12:27;;;;;;;33.35;15.00;;;17.70;99.90;;;;;;5035605;28;25068;-77
2021/08/19 06:14:52;;;;;;;32.88;14.98;;;17.70;99.90;;;;;;5035100;28;25105;-79
2021/08/19 06:17:18;;;;;;;28.58;15.35;;;17.70;99.90;;;;;;5024014;28;25048;-79
2021/08/19 06:19:44;;;;;;;38.10;16.35;;;17.70;99.90;;;;;;5010044;28;25103;-77
2021/08/19 06:22:09;;;;;;;27.08;14.32;;;17.70;99.90;;;;;;5015596;28;25137;-78
2021/08/19 06:24:35;;;;;;;38.92;14.80;;;17.60;99.90;;;;;;5011927;28;25056;-79
2021/08/19 06:27:01;;;;;;;33.20;14.95;;;17.60;99.90;;;;;;5014317;28;25154;-78
2021/08/19 06:29:27;;;;;;;36.88;15.77;;;17.60;99.90;;;;;;5013921;28;25132;-78
2021/08/19 06:31:53;;;;;;;34.97;14.98;;;17.60;99.90;;;;;;5018302;28;25178;-76
2021/08/19 06:34:18;;;;;;;34.53;15.77;;;17.60;99.90;;;;;;5020005;28;25096;-79
2021/08/19 06:36:44;;;;;;;30.10;14.25;;;17.70;99.90;;;;;;5028511;28;25075;-77
2021/08/19 06:39:12;;;;;;;33.78;14.18;;;17.60;99.90;;;;;;5027268;28;25091;-78
2021/08/19 06:41:37;;;;;;;31.88;14.23;;;17.60;99.90;;;;;;5025665;28;25046;-77
2021/08/19 06:44:03;;;;;;;26.38;13.38;;;17.70;99.90;;;;;;5027778;28;25073;-76
2021/08/19 06:46:28;;;;;;;35.40;15.40;;;17.60;99.90;;;;;;5028146;28;25050;-77
2021/08/19 06:48:54;;;;;;;31.35;13.32;;;17.50;99.90;;;;;;5025553;28;25153;-79
2021/08/19 06:51:20;;;;;;;35.67;14.57;;;17.60;99.90;;;;;;5026003;28;25075;-78
2021/08/19 06:53:45;;;;;;;29.92;14.35;;;17.60;99.90;;;;;;5025581;28;25054;-77
2021/08/19 06:56:11;;;;;;;27.70;13.00;;;17.60;99.90;;;;;;5024925;28;25084;-78
2021/08/19 06:58:37;;;;;;;24.70;12.77;;;17.70;99.90;;;;;;5027801;28;25056;-78
2021/08/19 07:01:03;;;;;;;27.75;13.32;;;17.70;99.90;;;;;;5028930;28;25056;-75
2021/08/19 07:03:28;;;;;;;25.98;11.98;;;17.60;99.90;;;;;;5019748;28;25075;-79
2021/08/19 07:05:54;;;;;;;27.35;13.45;;;17.60;99.90;;;;;;5019708;28;25058;-79
2021/08/19 07:08:19;;;;;;;30.35;13.23;;;17.50;99.90;;;;;;5017524;28;25139;-78
2021/08/19 07:10:45;;;;;;;31.02;12.88;;;17.50;99.90;;;;;;5017740;28;25107;-78
2021/08/19 07:13:13;;;;;;;28.75;12.55;;;17.50;99.90;;;;;;5015120;28;25086;-77
2021/08/19 07:15:41;;;;;;;22.20;12.27;;;17.50;99.90;;;;;;5014440;28;25105;-77
2021/08/19 07:18:06;;;;;;;25.50;11.52;;;17.50;99.90;;;;;;5014221;28;25051;-79
2021/08/19 07:20:32;;;;;;;30.35;12.32;;;17.50;99.90;;;;;;5001545;28;25131;-78
2021/08/19 07:22:58;;;;;;;20.98;10.93;;;17.50;99.90;;;;;;5020416;28;25101;-77
2021/08/19 07:25:24;;;;;;;28.88;13.10;;;17.50;99.90;;;;;;5015275;28;25164;-77
2021/08/19 07:27:51;;;;;;;23.85;11.20;;;17.60;99.90;;;;;;5012558;28;25098;-78
2021/08/19 07:30:19;;;;;;;26.50;10.55;;;17.70;99.90;;;;;;5011528;28;25138;-78
2021/08/19 07:32:45;;;;;;;25.92;11.32;;;17.70;99.90;;;;;;5012223;28;25070;-78
2021/08/19 07:35:12;;;;;;;28.25;12.07;;;17.70;99.90;;;;;;5014598;28;25096;-78
2021/08/19 07:37:48;;;;;;;24.15;11.30;;;17.70;99.90;;;;;;5013197;28;25154;-78
2021/08/19 07:40:18;;;;;;;24.77;11.38;;;17.70;99.90;;;;;;5007418;28;25073;-78
2021/08/19 07:42:44;;;;;;;24.95;12.18;;;17.60;99.90;;;;;;5011537;28;25125;-78
2021/08/19 07:45:11;;;;;;;23.35;11.15;;;17.50;99.90;;;;;;5009751;28;25108;-76
2021/08/19 07:47:36;;;;;;;21.40;11.50;;;17.60;99.90;;;;;;5018507;28;25092;-76
2021/08/19 07:50:03;;;;;;;24.42;10.93;;;17.60;99.90;;;;;;5020310;28;25058;-76
2021/08/19 07:52:29;;;;;;;20.95;11.07;;;17.60;99.90;;;;;;5022123;28;25048;-79
2021/08/19 07:54:54;;;;;;;23.65;11.90;;;17.60;99.90;;;;;;5017211;28;25095;-78
2021/08/19 07:57:20;;;;;;;18.77;11.40;;;17.50;99.90;;;;;;5017229;28;25081;-77
2021/08/19 07:59:46;;;;;;;20.27;11.68;;;17.60;99.90;;;;;;5015357;28;25099;-77
2021/08/19 08:02:11;;;;;;;20.70;11.90;;;17.70;99.90;;;;;;5012609;28;25168;-77
2021/08/19 08:04:37;;;;;;;21.73;12.02;;;17.60;99.90;;;;;;5012863;28;25054;-79
2021/08/19 08:07:03;;;;;;;20.05;11.95;;;17.70;99.90;;;;;;5011866;28;25218;-78
2021/08/19 08:09:28;;;;;;;19.33;11.82;;;17.70;99.90;;;;;;4996407;28;25078;-79
2021/08/19 08:11:56;;;;;;;20.02;12.38;;;17.70;99.90;;;;;;5013454;28;25062;-78
2021/08/19 08:14:21;;;;;;;19.15;12.55;;;17.70;99.90;;;;;;5009761;28;25057;-78
2021/08/19 08:16:47;;;;;;;24.40;12.98;;;17.70;99.90;;;;;;5013165;28;25090;-77
2021/08/19 08:19:15;;;;;;;23.63;13.40;;;17.80;99.90;;;;;;5011275;28;25059;-78
2021/08/19 08:21:41;;;;;;;25.13;12.85;;;17.80;99.90;;;;;;5012562;28;25138;-78
2021/08/19 08:24:08;;;;;;;18.55;12.75;;;17.80;99.90;;;;;;5011858;28;25088;-77
2021/08/19 08:26:34;;;;;;;23.25;13.27;;;17.80;99.90;;;;;;4982847;28;25055;-77
2021/08/19 08:29:00;;;;;;;20.92;13.07;;;17.70;99.90;;;;;;5013408;28;25118;-81
2021/08/19 08:31:26;;;;;;;20.27;12.98;;;17.70;99.90;;;;;;5013572;28;25092;-78
2021/08/19 08:33:51;;;;;;;16.65;11.07;;;17.70;99.90;;;;;;5010845;28;25057;-79
2021/08/19 08:36:17;;;;;;;23.08;12.52;;;17.70;99.90;;;;;;5012037;28;25069;-78
2021/08/19 08:38:44;;;;;;;19.60;11.20;;;17.70;99.90;;;;;;5012555;28;25069;-78
2021/08/19 08:41:12;;;;;;;20.35;12.48;;;17.80;99.90;;;;;;5014129;28;25060;-78
2021/08/19 08:43:38;;;;;;;16.25;11.10;;;17.90;99.90;;;;;;5015957;28;25101;-78
2021/08/19 08:46:07;;;;;;;17.40;12.35;;;17.80;99.90;;;;;;4999873;28;25063;-78
2021/08/19 08:48:33;;;;;;;21.27;12.43;;;17.70;99.90;;;;;;5016373;28;25139;-78
2021/08/19 08:50:59;;;;;;;23.38;12.68;;;17.90;99.90;;;;;;5015432;28;25107;-79
2021/08/19 08:53:25;;;;;;;22.00;11.98;;;17.80;99.90;;;;;;4996719;28;25059;-81
2021/08/19 08:55:51;;;;;;;19.88;11.55;;;17.70;99.90;;;;;;5013314;28;25079;-78
2021/08/19 08:58:17;;;;;;;18.75;11.40;;;17.60;99.90;;;;;;5021902;28;25065;-78
2021/08/19 09:00:47;;;;;;;23.48;10.32;;;17.70;99.90;;;;;;5016534;28;25134;-79
2021/08/19 09:03:15;;;;;;;21.13;10.20;;;17.60;99.90;;;;;;5016051;28;25107;-77
2021/08/19 09:05:44;;;;;;;14.70;9.40;;;17.50;99.90;;;;;;5019759;28;25075;-77
2021/08/19 09:08:18;;;;;;;14.65;8.93;;;17.50;99.90;;;;;;5033856;28;25037;-76
2021/08/19 09:10:45;;;;;;;15.60;9.18;;;17.40;99.90;;;;;;5011050;28;25069;-76
2021/08/19 09:13:15;;;;;;;18.15;8.68;;;17.50;99.90;;;;;;5023577;28;25058;-79
2021/08/19 09:15:42;;;;;;;15.63;8.68;;;17.40;99.90;;;;;;5013346;28;25067;-78
2021/08/19 09:18:08;;;;;;;15.55;9.45;;;17.50;99.90;;;;;;5013845;28;25104;-75
2021/08/19 09:20:39;;;;;;;18.00;8.63;;;17.40;99.90;;;;;;5015776;28;25096;-79
2021/08/19 09:23:10;;;;;;;13.82;8.18;;;17.40;99.90;;;;;;5016490;28;25067;-79
2021/08/19 09:25:41;;;;;;;12.40;8.13;;;17.30;99.90;;;;;;5014347;28;25068;-78
2021/08/19 09:28:26;;;;;;;15.00;8.95;;;17.20;99.90;;;;;;5014979;28;25150;-77
2021/08/19 09:31:08;;;;;;;16.45;8.18;;;17.20;99.90;;;;;;5017255;28;25063;-77
2021/08/19 09:33:36;;;;;;;25.83;9.55;;;17.20;99.90;;;;;;5007440;28;25129;-78
2021/08/19 09:36:06;;;;;;;16.20;8.25;;;17.20;99.90;;;;;;5018035;28;25092;-78
2021/08/19 09:38:43;;;;;;;13.70;9.43;;;17.20;99.90;;;;;;4996443;28;25087;-78
2021/08/19 09:41:18;;;;;;;18.98;9.23;;;17.00;99.90;;;;;;5007746;28;25066;-79
2021/08/19 09:43:49;;;;;;;14.35;8.55;;;17.00;99.90;;;;;;5016628;28;25062;-80
2021/08/19 09:46:38;;;;;;;19.90;8.90;;;17.10;99.90;;;;;;5015030;28;25065;-81
2021/08/19 09:49:29;;;;;;;16.13;9.70;;;17.10;99.90;;;;;;5006466;28;25105;-79
2021/08/19 09:52:13;;;;;;;17.98;9.52;;;17.10;99.90;;;;;;4998021;28;25130;-78
2021/08/19 09:54:40;;;;;;;15.02;9.23;;;17.10;99.90;;;;;;4992780;28;25062;-80
2021/08/19 09:57:08;;;;;;;17.02;10.00;;;17.10;99.90;;;;;;5019189;28;25047;-80
2021/08/19 09:59:36;;;;;;;13.57;9.65;;;17.10;99.90;;;;;;5016391;28;25055;-79
2021/08/19 10:02:03;;;;;;;15.32;9.25;;;17.10;99.90;;;;;;5017110;28;25133;-79
2021/08/19 10:04:29;;;;;;;14.80;9.68;;;17.10;99.90;;;;;;5016688;28;25072;-78
2021/08/19 10:06:55;;;;;;;19.83;8.77;;;17.00;99.90;;;;;;5014794;28;25088;-80
2021/08/19 10:09:23;;;;;;;16.48;9.40;;;17.00;99.90;;;;;;4999946;28;25076;-79
2021/08/19 10:11:50;;;;;;;19.00;10.13;;;17.10;99.90;;;;;;4999654;28;25064;-79
2021/08/19 10:14:24;;;;;;;18.70;10.30;;;17.10;99.90;;;;;;5014602;28;25066;-77
2021/08/19 10:16:50;;;;;;;19.05;10.00;;;17.00;99.90;;;;;;5015168;28;25074;-79
2021/08/19 10:19:19;;;;;;;22.27;9.63;;;17.10;99.90;;;;;;5012903;28;25081;-78
2021/08/19 10:21:55;;;;;;;19.50;10.05;;;17.20;99.90;;;;;;5015597;28;25147;-80
2021/08/19 10:24:29;;;;;;;18.90;9.25;;;17.20;99.90;;;;;;5015415;28;25155;-79
2021/08/19 10:27:18;;;;;;;22.70;10.35;;;17.10;99.90;;;;;;5015736;28;25100;-80
2021/08/19 10:29:50;;;;;;;17.33;10.25;;;17.10;99.90;;;;;;5013813;28;25126;-76
2021/08/19 10:32:28;;;;;;;15.55;10.27;;;17.00;99.90;;;;;;5015860;28;25079;-78
2021/08/19 10:34:56;;;;;;;17.77;10.73;;;16.90;99.90;;;;;;5012194;28;25055;-77
2021/08/19 10:37:45;;;;;;;21.40;10.82;;;16.90;99.90;;;;;;4996125;28;25068;-77
2021/08/19 10:40:20;;;;;;;20.02;11.98;;;16.90;99.90;;;;;;5009184;28;25084;-78
2021/08/19 10:42:53;;;;;;;16.08;8.73;;;16.80;99.90;;;;;;5013415;28;25074;-76
2021/08/19 10:45:27;;;;;;;16.92;9.63;;;16.80;99.90;;;;;;5014051;28;25091;-76
2021/08/19 10:48:01;;;;;;;18.65;10.88;;;16.70;99.90;;;;;;5014359;28;25071;-78
2021/08/19 10:50:38;;;;;;;18.02;11.40;;;16.70;99.90;;;;;;5025218;28;25159;-77
2021/08/19 10:53:14;;;;;;;14.63;11.13;;;16.70;99.90;;;;;;4992030;28;25102;-78
2021/08/19 10:55:47;;;;;;;14.48;10.60;;;16.70;99.90;;;;;;5011766;28;25066;-78
2021/08/19 10:58:28;;;;;;;18.92;11.23;;;16.80;99.90;;;;;;5012602;28;25067;-78
2021/08/19 11:00:56;;;;;;;19.98;11.55;;;16.80;99.90;;;;;;5016043;28;25067;-77
2021/08/19 11:03:38;;;;;;;23.38;13.32;;;16.70;99.90;;;;;;4995281;28;25079;-78
2021/08/19 11:06:05;;;;;;;21.15;12.05;;;16.70;99.90;;;;;;5018567;28;25105;-78
2021/08/19 11:08:52;;;;;;;19.58;13.07;;;16.70;99.90;;;;;;5023620;28;25078;-76
2021/08/19 11:11:32;;;;;;;19.25;11.65;;;16.90;99.90;;;;;;5017712;28;25075;-78
2021/08/19 11:14:09;;;;;;;20.90;10.90;;;16.90;99.90;;;;;;5015902;28;25089;-78
2021/08/19 11:16:38;;;;;;;15.95;10.07;;;16.90;99.90;;;;;;5015851;28;25066;-79
2021/08/19 11:19:22;;;;;;;19.38;11.10;;;16.80;99.90;;;;;;5012697;28;25060;-79
2021/08/19 11:21:55;;;;;;;16.83;11.75;;;16.90;99.90;;;;;;5012384;28;25079;-78
2021/08/19 11:24:23;;;;;;;23.95;11.23;;;16.90;99.90;;;;;;5012755;28;25120;-77
2021/08/19 11:27:09;;;;;;;19.45;10.18;;;17.00;99.90;;;;;;5004506;28;25110;-78
2021/08/19 11:29:39;;;;;;;19.92;9.40;;;17.10;99.90;;;;;;4994924;28;25064;-77
2021/08/19 11:32:13;;;;;;;17.42;9.45;;;17.00;99.90;;;;;;5012517;28;25103;-78
2021/08/19 11:34:46;;;;;;;18.63;10.25;;;17.20;99.90;;;;;;5012761;28;25198;-79
2021/08/19 11:37:34;;;;;;;20.98;11.00;;;17.20;99.90;;;;;;5012125;28;25058;-77
2021/08/19 11:40:00;;;;;;;21.33;8.93;;;17.30;99.90;;;;;;5003847;28;25052;-77
2021/08/19 11:42:34;;;;;;;17.65;9.43;;;17.30;99.90;;;;;;5010759;28;25051;-80
2021/08/19 11:45:19;;;;;;;16.55;8.30;;;17.40;99.90;;;;;;4998356;28;25100;-78
2021/08/19 11:47:45;;;;;;;12.48;7.75;;;17.30;99.90;;;;;;5007026;28;25067;-80
2021/08/19 11:50:11;;;;;;;13.23;7.55;;;17.30;99.90;;;;;;5012675;28;25057;-79
2021/08/19 11:52:37;;;;;;;13.32;6.70;;;17.40;99.90;;;;;;5011379;28;25110;-78
2021/08/19 11:55:03;;;;;;;10.65;6.93;;;17.50;99.90;;;;;;5015635;28;25064;-79
2021/08/19 11:57:28;;;;;;;15.73;6.80;;;17.70;99.90;;;;;;5015566;28;25057;-80
2021/08/19 12:00:08;;;;;;;12.05;6.93;;;17.80;99.90;;;;;;5013382;28;25057;-79
2021/08/19 12:02:37;;;;;;;14.30;7.15;;;17.90;99.90;;;;;;5010578;28;25097;-77
2021/08/19 12:05:04;;;;;;;16.20;7.80;;;18.00;99.90;;;;;;4995893;28;25083;-79
2021/08/19 12:07:40;;;;;;;15.80;7.00;;;17.80;99.90;;;;;;5017007;28;25080;-79
2021/08/19 12:10:08;;;;;;;16.52;7.70;;;17.80;99.90;;;;;;5034605;28;25072;-78
2021/08/19 12:12:37;;;;;;;10.65;7.07;;;17.90;99.90;;;;;;5034471;28;25073;-80
2021/08/19 12:15:08;;;;;;;9.60;6.28;;;18.10;99.90;;;;;;5032272;28;25063;-79
2021/08/19 12:17:34;;;;;;;13.60;7.15;;;18.10;99.90;;;;;;5023107;28;25070;-78
2021/08/19 12:20:19;;;;;;;12.88;5.95;;;18.10;99.90;;;;;;5014615;28;25101;-79
2021/08/19 12:22:45;;;;;;;13.93;5.50;;;18.00;99.90;;;;;;5016726;28;25101;-80
2021/08/19 12:25:18;;;;;;;9.57;5.05;;;18.10;99.90;;;;;;5014993;28;25078;-77
2021/08/19 12:27:44;;;;;;;;;;;18.10;99.90;;;;;;4998404;28;25100;-75
2021/08/19 12:30:10;;;;;;;9.85;4.32;;;18.10;99.90;;;;;;5017996;28;25081;-76
2021/08/19 12:32:36;;;;;;;11.30;5.18;;;18.10;99.90;;;;;;5021878;28;25061;-80
2021/08/19 12:35:08;;;;;;;10.90;5.68;;;18.10;99.90;;;;;;5010584;28;25080;-78